Time;durP1;ratioP1;P1;durP2;ratioP2;P2;SDS_P1;SDS_P2;PMS_P1;PMS_P2;Temp;Humidity;BMP_temperature;BMP_pressure;BME280_temperature;BME280_humidity;BME280_pressure;Samples;Min_cycle;Max_cycle;Signal;HPM_P1;HPM_P2
2024/01/18 00:01:31;;;;;;;50.10;29.23;;;1.70;99.90;;;;;;5037800;28;20044;-70
2024/01/18 00:03:58;;;;;;;51.97;29.25;;;1.70;99.90;;;;;;5037690;28;20021;-70
2024/01/18 00:06:23;;;;;;;52.78;29.50;;;1.70;99.90;;;;;;5040153;28;20520;-70
2024/01/18 00:08:49;;;;;;;54.55;26.70;;;1.70;99.90;;;;;;5036626;28;20018;-70
2024/01/18 00:11:16;;;;;;;50.33;25.98;;;1.70;99.90;;;;;;5029962;28;20581;-70
2024/01/18 00:13:42;;;;;;;50.20;27.02;;;1.70;99.90;;;;;;5037617;28;20396;-70
2024/01/18 00:16:08;;;;;;;51.08;26.63;;;1.70;99.90;;;;;;5037103;28;20021;-70
2024/01/18 00:18:34;;;;;;;48.95;26.65;;;1.70;99.90;;;;;;5036464;28;20032;-70
2024/01/18 00:21:00;;;;;;;53.38;27.65;;;1.70;99.90;;;;;;5036413;28;20474;-70
2024/01/18 00:23:26;;;;;;;47.22;26.85;;;1.70;99.90;;;;;;5036475;28;20108;-70
2024/01/18 00:25:52;;;;;;;50.40;27.73;;;1.70;99.90;;;;;;5040090;28;20033;-70
2024/01/18 00:28:17;;;;;;;46.78;26.70;;;1.70;99.90;;;;;;5034188;28;20013;-70
2024/01/18 00:30:43;;;;;;;49.20;28.73;;;1.70;99.90;;;;;;5037977;28;20372;-70
2024/01/18 00:33:09;;;;;;;52.65;28.67;;;1.70;99.90;;;;;;5036532;28;20503;-70
2024/01/18 00:35:35;;;;;;;49.92;26.67;;;1.70;99.90;;;;;;5037669;28;20025;-70
2024/01/18 00:38:00;;;;;;;47.97;27.20;;;1.60;99.90;;;;;;5035527;28;20022;-71
2024/01/18 00:40:26;;;;;;;52.45;27.83;;;1.60;99.90;;;;;;5038056;28;20107;-70
2024/01/18 00:42:52;;;;;;;49.47;26.50;;;1.70;99.90;;;;;;5038767;28;20025;-70
2024/01/18 00:45:18;;;;;;;45.83;26.05;;;1.60;99.90;;;;;;5035378;28;20029;-70
2024/01/18 00:47:44;;;;;;;51.00;25.27;;;1.70;99.90;;;;;;5034612;28;20049;-70
2024/01/18 00:50:10;;;;;;;45.10;26.40;;;1.70;99.90;;;;;;5036142;28;20025;-70
2024/01/18 00:52:35;;;;;;;52.38;28.10;;;1.70;99.90;;;;;;5032019;28;20474;-70
2024/01/18 00:55:01;;;;;;;45.08;25.98;;;1.70;99.90;;;;;;5039836;28;20480;-70
2024/01/18 00:57:28;;;;;;;52.70;27.85;;;1.60;99.90;;;;;;5036384;28;20462;-70
2024/01/18 00:59:54;;;;;;;53.22;27.05;;;1.70;99.90;;;;;;5037404;28;20021;-71
2024/01/18 01:02:20;;;;;;;50.95;27.42;;;1.60;99.90;;;;;;5035059;28;20029;-71
2024/01/18 01:04:46;;;;;;;48.50;27.00;;;1.60;99.90;;;;;;5035094;28;20033;-70
2024/01/18 01:07:12;;;;;;;50.00;25.40;;;1.70;99.90;;;;;;5037932;28;20094;-70
2024/01/18 01:09:38;;;;;;;49.72;25.58;;;1.70;99.90;;;;;;5038187;28;20428;-70
2024/01/18 01:12:04;;;;;;;56.20;26.60;;;1.70;99.90;;;;;;5041542;28;22370;-70
2024/01/18 01:14:29;;;;;;;53.33;26.25;;;1.60;99.90;;;;;;5036427;28;20469;-71
2024/01/18 01:16:55;;;;;;;48.63;24.45;;;1.60;99.90;;;;;;5040360;28;20103;-70
2024/01/18 01:19:21;;;;;;;51.42;25.40;;;1.60;99.90;;;;;;5037925;28;20017;-70
2024/01/18 01:21:47;;;;;;;47.67;25.83;;;1.60;99.90;;;;;;5039521;28;20021;-70
2024/01/18 01:24:13;;;;;;;46.47;25.50;;;1.60;99.90;;;;;;5035622;28;20068;-70
2024/01/18 01:26:38;;;;;;;47.55;26.25;;;1.70;99.90;;;;;;5037460;28;20021;-71
2024/01/18 01:29:05;;;;;;;46.75;25.48;;;1.70;99.90;;;;;;5034236;28;20028;-70
2024/01/18 01:31:31;;;;;;;47.45;24.55;;;1.70;99.90;;;;;;5038762;28;20036;-70
2024/01/18 01:33:57;;;;;;;46.80;25.55;;;1.70;99.90;;;;;;5033372;28;20113;-71
2024/01/18 01:36:22;;;;;;;46.10;24.63;;;1.70;99.90;;;;;;5039899;28;20112;-71
2024/01/18 01:38:48;;;;;;;48.13;25.40;;;1.70;99.90;;;;;;5034946;28;20112;-71
2024/01/18 01:41:14;;;;;;;48.38;25.92;;;1.70;99.90;;;;;;5037049;28;20465;-70
2024/01/18 01:43:57;;;;;;;47.35;27.33;;;1.70;99.90;;;;;;5032875;28;20028;-70
2024/01/18 01:46:23;;;;;;;49.95;27.05;;;1.70;99.90;;;;;;5035902;28;20029;-70
2024/01/18 01:48:48;;;;;;;42.10;25.00;;;1.70;99.90;;;;;;5034591;28;20488;-69
2024/01/18 01:51:14;;;;;;;44.45;25.92;;;1.70;99.90;;;;;;5037075;28;20475;-70
2024/01/18 01:53:40;;;;;;;43.72;24.50;;;1.70;99.90;;;;;;5034694;28;20107;-70
2024/01/18 01:56:06;;;;;;;47.63;25.15;;;1.70;99.90;;;;;;5038217;28;20033;-70
2024/01/18 01:58:33;;;;;;;39.63;23.70;;;1.70;99.90;;;;;;5036843;28;20114;-70
2024/01/18 02:00:59;;;;;;;48.72;26.10;;;1.60;99.90;;;;;;5039271;28;20021;-71
2024/01/18 02:03:25;;;;;;;46.05;24.58;;;1.60;99.90;;;;;;5037409;28;20043;-70
2024/01/18 02:05:50;;;;;;;48.88;24.30;;;1.70;99.90;;;;;;5035116;28;20494;-70
2024/01/18 02:08:16;;;;;;;46.22;25.00;;;1.70;99.90;;;;;;5037932;28;20025;-70
2024/01/18 02:10:43;;;;;;;50.30;26.10;;;1.60;99.90;;;;;;5038960;28;20625;-70
2024/01/18 02:13:10;;;;;;;46.85;25.15;;;1.60;99.90;;;;;;5036246;28;20104;-70
2024/01/18 02:15:36;;;;;;;44.95;24.00;;;1.60;99.90;;;;;;5037485;28;20520;-70
2024/01/18 02:18:01;;;;;;;47.33;25.20;;;1.60;99.90;;;;;;5036217;28;20013;-70
2024/01/18 02:20:27;;;;;;;49.25;26.10;;;1.60;99.90;;;;;;5033962;28;20478;-70
2024/01/18 02:22:54;;;;;;;48.70;25.38;;;1.60;99.90;;;;;;5037058;28;20025;-70
2024/01/18 02:25:25;;;;;;;50.50;26.73;;;1.50;99.90;;;;;;5036379;28;20064;-70
2024/01/18 02:27:55;;;;;;;49.60;26.55;;;1.60;99.90;;;;;;5037515;28;20497;-70
2024/01/18 02:30:21;;;;;;;55.45;26.27;;;1.50;99.90;;;;;;5035893;28;20583;-70
2024/01/18 02:32:47;;;;;;;45.70;24.45;;;1.50;99.90;;;;;;5040602;28;20025;-69
2024/01/18 02:35:13;;;;;;;48.85;24.33;;;1.50;99.90;;;;;;5049898;28;20119;-70
2024/01/18 02:37:39;;;;;;;46.30;24.77;;;1.50;99.90;;;;;;5051032;28;20378;-70
2024/01/18 02:40:06;;;;;;;46.20;24.55;;;1.60;99.90;;;;;;5051325;28;20035;-70
2024/01/18 02:42:33;;;;;;;50.20;25.52;;;1.60;99.90;;;;;;5040089;28;20018;-70
2024/01/18 02:45:01;;;;;;;51.70;26.45;;;1.60;99.90;;;;;;5030403;28;20040;-70
2024/01/18 02:47:28;;;;;;;52.38;26.40;;;1.60;99.90;;;;;;5031360;28;20067;-70
2024/01/18 02:49:56;;;;;;;49.35;26.13;;;1.60;99.90;;;;;;5042230;28;20028;-70
2024/01/18 02:52:21;;;;;;;47.38;26.77;;;1.60;99.90;;;;;;5031081;28;20074;-70
2024/01/18 02:54:47;;;;;;;45.95;23.42;;;1.60;99.90;;;;;;5044292;28;20033;-70
2024/01/18 02:57:13;;;;;;;47.53;25.35;;;1.60;99.90;;;;;;5050683;28;20032;-70
2024/01/18 02:59:38;;;;;;;52.03;25.23;;;1.60;99.90;;;;;;5050961;28;20459;-70
2024/01/18 03:02:04;;;;;;;45.72;26.50;;;1.50;99.90;;;;;;5050829;28;20114;-70
2024/01/18 03:04:31;;;;;;;50.58;25.10;;;1.50;99.90;;;;;;5049950;28;20720;-70
2024/01/18 03:06:57;;;;;;;46.60;25.17;;;1.50;99.90;;;;;;5049797;28;20027;-70
2024/01/18 03:09:23;;;;;;;44.25;24.73;;;1.50;99.90;;;;;;5050208;28;20040;-70
2024/01/18 03:11:49;;;;;;;45.00;26.77;;;1.50;99.90;;;;;;5040972;28;20025;-70
2024/01/18 03:14:14;;;;;;;52.50;27.17;;;1.50;99.90;;;;;;5039533;28;20029;-70
2024/01/18 03:16:42;;;;;;;50.33;27.30;;;1.50;99.90;;;;;;5031523;28;20030;-70
2024/01/18 03:19:12;;;;;;;49.95;28.27;;;1.50;99.90;;;;;;5049542;28;20032;-70
2024/01/18 03:21:38;;;;;;;44.90;25.05;;;1.60;99.90;;;;;;5051170;28;20473;-70
2024/01/18 03:24:05;;;;;;;51.88;27.58;;;1.50;99.90;;;;;;5047443;28;20025;-70
2024/01/18 03:26:31;;;;;;;45.72;26.77;;;1.40;99.90;;;;;;5041549;28;20038;-70
2024/01/18 03:28:57;;;;;;;45.58;27.48;;;1.40;99.90;;;;;;5030547;28;20021;-70
2024/01/18 03:31:23;;;;;;;44.03;25.30;;;1.50;99.90;;;;;;5031535;28;20076;-69
2024/01/18 03:33:49;;;;;;;43.75;24.33;;;1.40;99.90;;;;;;5031527;28;20470;-70
2024/01/18 03:36:14;;;;;;;47.47;24.52;;;1.50;99.90;;;;;;5031143;28;20018;-71
2024/01/18 03:38:40;;;;;;;56.03;24.98;;;1.50;99.90;;;;;;5031001;28;20087;-69
2024/01/18 03:41:06;;;;;;;49.40;24.58;;;1.50;99.90;;;;;;5029884;28;20048;-70
2024/01/18 03:43:31;;;;;;;49.28;23.23;;;1.50;99.90;;;;;;5036411;28;20022;-70
2024/01/18 03:45:57;;;;;;;47.17;24.15;;;1.40;99.90;;;;;;5041292;28;20092;-70
2024/01/18 03:48:22;;;;;;;42.85;24.75;;;1.40;99.90;;;;;;5045545;28;20546;-70
2024/01/18 03:50:48;;;;;;;43.60;24.90;;;1.50;99.90;;;;;;5036069;28;20034;-70
2024/01/18 03:53:14;;;;;;;46.35;26.40;;;1.50;99.90;;;;;;5045181;28;20386;-70
2024/01/18 03:55:40;;;;;;;44.45;23.95;;;1.50;99.90;;;;;;5035582;28;20021;-70
2024/01/18 03:58:06;;;;;;;41.13;23.67;;;1.40;99.90;;;;;;5046082;28;20485;-70
2024/01/18 04:00:32;;;;;;;46.00;26.10;;;1.40;99.90;;;;;;5035846;28;20021;-70
2024/01/18 04:02:58;;;;;;;42.53;24.63;;;1.40;99.90;;;;;;5043546;28;20025;-70
2024/01/18 04:05:24;;;;;;;47.15;23.80;;;1.40;99.90;;;;;;5036298;28;20034;-69
2024/01/18 04:07:49;;;;;;;43.83;24.02;;;1.40;99.90;;;;;;5044883;28;20112;-70
2024/01/18 04:10:15;;;;;;;45.10;24.05;;;1.40;99.90;;;;;;5037718;28;20036;-70
2024/01/18 04:12:42;;;;;;;44.47;23.52;;;1.40;99.90;;;;;;5040734;28;20082;-70
2024/01/18 04:15:09;;;;;;;46.42;24.88;;;1.30;99.90;;;;;;5038836;28;20105;-70
2024/01/18 04:17:34;;;;;;;43.08;25.42;;;1.40;99.90;;;;;;5039046;28;20033;-70
2024/01/18 04:20:05;;;;;;;46.83;25.70;;;1.40;99.90;;;;;;5040232;28;20083;-71
2024/01/18 04:22:30;;;;;;;48.05;25.17;;;1.30;99.90;;;;;;5039594;28;20033;-70
2024/01/18 04:24:57;;;;;;;45.63;25.05;;;1.30;99.90;;;;;;5033226;28;20041;-71
2024/01/18 04:27:22;;;;;;;44.28;24.88;;;1.30;99.90;;;;;;5041425;28;20500;-70
2024/01/18 04:29:48;;;;;;;47.28;25.98;;;1.30;99.90;;;;;;5033146;28;20026;-70
2024/01/18 04:32:14;;;;;;;47.67;26.65;;;1.30;99.90;;;;;;5035167;28;20025;-70
2024/01/18 04:34:40;;;;;;;50.40;26.17;;;1.30;99.90;;;;;;5042443;28;20111;-70
2024/01/18 04:37:05;;;;;;;44.45;26.05;;;1.30;99.90;;;;;;5038292;28;20112;-70
2024/01/18 04:39:31;;;;;;;45.95;25.48;;;1.30;99.90;;;;;;5046786;28;20025;-69
2024/01/18 04:41:57;;;;;;;48.13;24.48;;;1.30;99.90;;;;;;5048395;28;20404;-70
2024/01/18 04:44:23;;;;;;;44.80;24.50;;;1.30;99.90;;;;;;5048091;28;20026;-70
2024/01/18 04:46:48;;;;;;;46.05;26.42;;;1.30;99.90;;;;;;5064865;28;20131;-70
2024/01/18 04:49:14;;;;;;;45.28;25.08;;;1.30;99.90;;;;;;5041330;28;20025;-69
2024/01/18 04:51:40;;;;;;;50.67;27.75;;;1.20;99.90;;;;;;5035832;28;20034;-69
2024/01/18 04:54:06;;;;;;;53.75;26.75;;;1.20;99.90;;;;;;5039884;28;20535;-70
2024/01/18 04:56:31;;;;;;;50.60;27.63;;;1.20;99.90;;;;;;5033466;28;20555;-71
2024/01/18 04:58:57;;;;;;;49.42;25.80;;;1.20;99.90;;;;;;5041570;28;20514;-69
2024/01/18 05:01:23;;;;;;;48.33;26.48;;;1.20;99.90;;;;;;5046718;28;20103;-70
2024/01/18 05:03:48;;;;;;;51.13;25.20;;;1.20;99.90;;;;;;5043489;28;20056;-69
2024/01/18 05:06:14;;;;;;;46.13;27.05;;;1.20;99.90;;;;;;5036461;28;20064;-70
2024/01/18 05:08:40;;;;;;;46.67;24.90;;;1.20;99.90;;;;;;5044240;28;20025;-69
2024/01/18 05:11:06;;;;;;;47.70;25.85;;;1.20;99.90;;;;;;5049698;28;20036;-69
2024/01/18 05:13:32;;;;;;;47.45;26.13;;;1.20;99.90;;;;;;5043016;28;20500;-71
2024/01/18 05:15:59;;;;;;;49.35;27.95;;;1.20;99.90;;;;;;5042873;28;20024;-71
2024/01/18 05:18:25;;;;;;;44.58;25.50;;;1.20;99.90;;;;;;5051087;28;20385;-69
2024/01/18 05:20:50;;;;;;;49.95;25.67;;;1.20;99.90;;;;;;5032254;28;20087;-69
2024/01/18 05:23:16;;;;;;;50.72;27.20;;;1.20;99.90;;;;;;5043512;28;20513;-70
2024/01/18 05:25:42;;;;;;;44.40;24.15;;;1.20;99.90;;;;;;5032989;28;20029;-70
2024/01/18 05:28:07;;;;;;;40.60;23.38;;;1.10;99.90;;;;;;5042228;28;20079;-71
2024/01/18 05:30:33;;;;;;;40.40;23.95;;;1.10;99.90;;;;;;5032566;28;20509;-69
2024/01/18 05:32:59;;;;;;;50.00;24.95;;;1.00;99.90;;;;;;5037945;28;20021;-69
2024/01/18 05:35:25;;;;;;;39.00;23.80;;;1.00;99.90;;;;;;5071447;28;20047;-70
2024/01/18 05:37:50;;;;;;;49.95;24.75;;;1.00;99.90;;;;;;5070360;28;20443;-69
2024/01/18 05:40:16;;;;;;;41.78;25.95;;;0.90;99.90;;;;;;5043825;28;20124;-69
2024/01/18 05:42:42;;;;;;;49.65;26.30;;;0.90;99.90;;;;;;5033219;28;20037;-70
2024/01/18 05:45:08;;;;;;;44.70;25.75;;;0.80;99.90;;;;;;5043280;28;20482;-70
2024/01/18 05:47:34;;;;;;;47.00;27.25;;;0.80;99.90;;;;;;5031830;28;20018;-69
2024/01/18 05:50:00;;;;;;;46.83;25.15;;;0.80;99.90;;;;;;5042145;28;20021;-69
2024/01/18 05:52:27;;;;;;;46.22;25.10;;;0.70;99.90;;;;;;5062305;28;20038;-69
2024/01/18 05:54:53;;;;;;;46.25;25.25;;;0.70;99.90;;;;;;5047396;28;20032;-69
2024/01/18 05:57:19;;;;;;;52.20;25.15;;;0.70;99.90;;;;;;5031660;28;20033;-69
2024/01/18 05:59:45;;;;;;;49.85;25.77;;;0.60;99.90;;;;;;5040142;28;20029;-69
2024/01/18 06:02:10;;;;;;;44.55;24.83;;;0.50;99.90;;;;;;5033051;28;20391;-69
2024/01/18 06:04:36;;;;;;;47.67;26.15;;;0.50;99.90;;;;;;5044469;28;20079;-69
2024/01/18 06:07:02;;;;;;;45.05;24.60;;;0.50;99.90;;;;;;5044869;28;20113;-69
2024/01/18 06:09:29;;;;;;;45.28;27.05;;;0.50;99.90;;;;;;5045063;28;20053;-69
2024/01/18 06:11:54;;;;;;;50.15;26.48;;;0.50;99.90;;;;;;5034014;28;20030;-70
2024/01/18 06:14:20;;;;;;;48.90;25.88;;;0.40;99.90;;;;;;5043966;28;20037;-69
2024/01/18 06:16:46;;;;;;;45.53;25.13;;;0.40;99.90;;;;;;5037238;28;20033;-69
2024/01/18 06:19:12;;;;;;;48.05;25.65;;;0.40;99.90;;;;;;5035827;28;20090;-69
2024/01/18 06:21:38;;;;;;;49.72;26.73;;;0.30;99.90;;;;;;5036340;28;20033;-69
2024/01/18 06:24:04;;;;;;;41.55;23.88;;;0.30;99.90;;;;;;5032236;28;20440;-70
2024/01/18 06:26:30;;;;;;;46.35;26.08;;;0.20;99.90;;;;;;5045980;28;20040;-69
2024/01/18 06:28:56;;;;;;;42.55;24.25;;;0.10;99.90;;;;;;5051203;28;20036;-69
2024/01/18 06:31:26;;;;;;;49.83;27.35;;;0.20;99.90;;;;;;5051968;28;20078;-69
2024/01/18 06:33:53;;;;;;;46.03;24.63;;;0.20;99.90;;;;;;5052022;28;20530;-69
2024/01/18 06:36:19;;;;;;;40.63;23.75;;;0.10;99.90;;;;;;5051849;28;20033;-70
2024/01/18 06:38:45;;;;;;;43.60;23.80;;;0.10;99.90;;;;;;5051245;28;20111;-70
2024/01/18 06:41:11;;;;;;;46.60;24.67;;;0.10;99.90;;;;;;5050611;28;20033;-70
2024/01/18 06:43:37;;;;;;;39.10;23.23;;;0.00;99.90;;;;;;5068499;28;20377;-71
2024/01/18 06:46:03;;;;;;;43.10;23.45;;;0.00;99.90;;;;;;5071170;28;20033;-69
2024/01/18 06:48:29;;;;;;;44.78;25.13;;;0.00;99.90;;;;;;5070980;28;20025;-70
2024/01/18 06:50:54;;;;;;;53.03;26.02;;;0.00;99.90;;;;;;5070416;28;20070;-70
2024/01/18 06:53:20;;;;;;;48.53;26.38;;;0.00;99.90;;;;;;5072184;28;20048;-70
2024/01/18 06:55:46;;;;;;;43.35;22.67;;;0.00;99.90;;;;;;5071957;28;20032;-74
2024/01/18 06:58:12;;;;;;;41.17;24.58;;;0.00;99.90;;;;;;5046855;28;20131;-71
2024/01/18 07:00:38;;;;;;;50.05;26.45;;;0.00;99.90;;;;;;5033066;28;20466;-70
2024/01/18 07:03:07;;;;;;;47.10;25.45;;;-0.10;99.90;;;;;;5044501;28;20465;-69
2024/01/18 07:05:32;;;;;;;43.13;22.92;;;-0.10;99.90;;;;;;5044276;28;20172;-69
2024/01/18 07:07:58;;;;;;;43.95;23.70;;;-0.20;99.90;;;;;;5032099;28;20108;-69
2024/01/18 07:10:24;;;;;;;42.40;22.60;;;-0.30;99.90;;;;;;5056830;28;20392;-70
2024/01/18 07:12:49;;;;;;;39.28;21.05;;;-0.30;99.90;;;;;;5050900;28;20482;-71
2024/01/18 07:15:15;;;;;;;42.53;23.05;;;-0.30;99.90;;;;;;5044040;28;20478;-70
2024/01/18 07:17:41;;;;;;;47.15;25.45;;;-0.30;99.90;;;;;;5039240;28;20036;-71
2024/01/18 07:20:08;;;;;;;48.55;25.05;;;-0.30;99.90;;;;;;5033190;28;20060;-71
2024/01/18 07:22:33;;;;;;;51.90;25.15;;;-0.30;99.90;;;;;;5045220;28;20055;-71
2024/01/18 07:24:59;;;;;;;52.13;26.50;;;-0.30;99.90;;;;;;5067120;28;20036;-70
2024/01/18 07:27:25;;;;;;;46.22;25.23;;;-0.30;99.90;;;;;;5043877;28;20084;-70
2024/01/18 07:29:50;;;;;;;46.10;24.38;;;-0.40;99.90;;;;;;5036755;28;20029;-70
2024/01/18 07:32:16;;;;;;;43.90;26.33;;;-0.40;99.90;;;;;;5043705;28;20112;-70
2024/01/18 07:34:42;;;;;;;47.13;25.63;;;-0.40;99.90;;;;;;5035176;28;20026;-70
2024/01/18 07:37:12;;;;;;;47.03;25.70;;;-0.50;99.90;;;;;;5044903;28;20099;-71
2024/01/18 07:39:38;;;;;;;43.00;24.55;;;-0.40;99.90;;;;;;5035170;28;20079;-71
2024/01/18 07:42:04;;;;;;;45.33;24.50;;;-0.50;99.90;;;;;;5045832;28;20030;-71
2024/01/18 07:44:29;;;;;;;39.90;23.90;;;-0.50;99.90;;;;;;5051843;28;20024;-70
2024/01/18 07:46:55;;;;;;;44.08;24.17;;;-0.50;99.90;;;;;;5036369;28;20372;-70
2024/01/18 07:49:21;;;;;;;45.95;23.52;;;-0.50;99.90;;;;;;5034214;28;20048;-70
2024/01/18 07:51:47;;;;;;;46.03;22.67;;;-0.50;99.90;;;;;;5044637;28;20112;-70
2024/01/18 07:54:13;;;;;;;41.70;22.42;;;-0.50;99.90;;;;;;5035145;28;20665;-70
2024/01/18 07:56:40;;;;;;;45.92;23.55;;;-0.50;99.90;;;;;;5044849;28;20036;-71
2024/01/18 07:59:06;;;;;;;45.85;25.13;;;-0.50;99.90;;;;;;5074562;28;20563;-70
2024/01/18 08:01:32;;;;;;;56.10;25.73;;;-0.50;99.90;;;;;;5062134;28;20116;-71
2024/01/18 08:03:58;;;;;;;39.10;23.17;;;-0.40;99.90;;;;;;5054172;28;20118;-71
2024/01/18 08:06:24;;;;;;;43.97;25.25;;;-0.40;99.90;;;;;;5054319;28;20029;-69
2024/01/18 08:08:50;;;;;;;45.63;23.90;;;-0.50;99.90;;;;;;5054066;28;20028;-71
2024/01/18 08:11:16;;;;;;;40.10;23.88;;;-0.50;99.90;;;;;;5060506;28;20027;-71
2024/01/18 08:13:41;;;;;;;41.20;22.63;;;-0.50;99.90;;;;;;5073470;28;20031;-71
2024/01/18 08:16:08;;;;;;;39.42;23.25;;;-0.50;99.90;;;;;;5074339;28;20032;-70
2024/01/18 08:18:35;;;;;;;39.63;21.80;;;-0.50;99.90;;;;;;5073405;28;20021;-70
2024/01/18 08:21:01;;;;;;;40.20;23.25;;;-0.50;99.90;;;;;;5074329;28;20041;-69
2024/01/18 08:23:26;;;;;;;45.53;22.60;;;-0.60;99.90;;;;;;5073687;28;20028;-70
2024/01/18 08:25:52;;;;;;;47.67;23.20;;;-0.50;99.90;;;;;;5072379;28;20040;-71
2024/01/18 08:28:18;;;;;;;40.47;22.63;;;-0.60;99.90;;;;;;5072194;28;20024;-69
2024/01/18 08:30:47;;;;;;;38.83;23.25;;;-0.60;99.90;;;;;;5072211;28;20035;-70
2024/01/18 08:33:13;;;;;;;36.33;22.23;;;-0.50;99.90;;;;;;5072306;28;20020;-71
2024/01/18 08:35:39;;;;;;;40.10;22.65;;;-0.50;99.90;;;;;;5064469;28;20028;-71
2024/01/18 08:38:05;;;;;;;39.70;22.35;;;-0.40;99.90;;;;;;5051874;28;20025;-69
2024/01/18 08:40:35;;;;;;;40.80;21.95;;;-0.40;99.90;;;;;;5051837;28;20689;-70
2024/01/18 08:43:01;;;;;;;36.88;20.73;;;-0.40;99.90;;;;;;5054591;28;20025;-70
2024/01/18 08:45:29;;;;;;;39.38;21.67;;;-0.30;99.90;;;;;;5046582;28;20033;-71
2024/01/18 08:47:54;;;;;;;33.70;18.70;;;-0.30;99.90;;;;;;5040436;28;20083;-71
2024/01/18 08:50:23;;;;;;;36.17;20.35;;;-0.30;99.90;;;;;;5038188;28;20037;-71
2024/01/18 08:52:51;;;;;;;38.35;22.20;;;-0.30;99.90;;;;;;5043812;28;20389;-71
2024/01/18 08:55:18;;;;;;;39.47;23.98;;;-0.40;99.90;;;;;;5042267;28;20087;-70
2024/01/18 08:57:44;;;;;;;39.40;23.83;;;-0.30;99.90;;;;;;5044447;28;20021;-71
2024/01/18 09:00:13;;;;;;;42.65;25.75;;;-0.30;99.90;;;;;;5022843;28;20033;-69
2024/01/18 09:02:40;;;;;;;42.80;25.98;;;-0.20;99.90;;;;;;5019955;28;20021;-71
2024/01/18 09:05:06;;;;;;;43.40;26.60;;;-0.10;99.90;;;;;;5033917;28;20104;-71
2024/01/18 09:07:32;;;;;;;44.65;22.73;;;-0.10;99.90;;;;;;5034447;28;20033;-72
2024/01/18 09:09:58;;;;;;;47.60;24.33;;;0.00;99.90;;;;;;5036205;28;20083;-73
2024/01/18 09:12:24;;;;;;;45.95;25.52;;;0.10;99.90;;;;;;5032724;28;20060;-74
2024/01/18 09:14:50;;;;;;;38.58;23.25;;;0.10;99.90;;;;;;5038454;28;20033;-74
2024/01/18 09:17:15;;;;;;;51.72;24.27;;;0.20;99.90;;;;;;5038464;28;20032;-74
2024/01/18 09:19:42;;;;;;;39.00;23.77;;;0.20;99.90;;;;;;5035881;28;20026;-73
2024/01/18 09:22:09;;;;;;;45.78;24.42;;;0.30;99.90;;;;;;5036189;28;20086;-73
2024/01/18 09:24:35;;;;;;;42.38;23.90;;;0.30;99.90;;;;;;5040750;28;20028;-73
2024/01/18 09:27:01;;;;;;;42.40;21.48;;;0.40;99.90;;;;;;5031986;28;20036;-73
2024/01/18 09:29:26;;;;;;;46.35;23.13;;;0.50;99.90;;;;;;5035802;28;20771;-74
2024/01/18 09:31:53;;;;;;;39.17;23.52;;;0.60;99.90;;;;;;5032848;28;20034;-74
2024/01/18 09:34:19;;;;;;;41.13;23.05;;;0.70;99.90;;;;;;5037687;28;20025;-72
2024/01/18 09:36:45;;;;;;;46.08;24.75;;;0.70;99.90;;;;;;5035744;28;20021;-73
2024/01/18 09:39:15;;;;;;;40.05;23.85;;;0.70;99.90;;;;;;5037594;28;20076;-73
2024/01/18 09:41:50;;;;;;;42.78;23.80;;;0.70;99.90;;;;;;5032770;28;20382;-74
2024/01/18 09:44:25;;;;;;;38.03;23.15;;;0.80;99.90;;;;;;5034771;28;20017;-73
2024/01/18 09:46:52;;;;;;;32.88;20.80;;;1.00;99.90;;;;;;5036742;28;20029;-72
2024/01/18 09:49:18;;;;;;;38.47;22.35;;;1.10;99.90;;;;;;5029538;28;20024;-73
2024/01/18 09:51:45;;;;;;;32.53;20.33;;;1.20;99.90;;;;;;5034482;28;20025;-72
2024/01/18 09:54:11;;;;;;;30.73;19.63;;;1.30;99.90;;;;;;5036127;28;20080;-72
2024/01/18 09:56:45;;;;;;;31.60;18.58;;;1.40;99.90;;;;;;5034132;28;20052;-73
2024/01/18 09:59:18;;;;;;;31.98;19.45;;;1.50;99.90;;;;;;5033700;28;20030;-73
2024/01/18 10:01:45;;;;;;;30.35;18.42;;;1.60;99.90;;;;;;5032379;28;20043;-72
2024/01/18 10:04:12;;;;;;;31.50;17.30;;;1.70;99.90;;;;;;5033304;28;20470;-73
2024/01/18 10:06:38;;;;;;;26.33;16.73;;;1.80;99.90;;;;;;5034677;28;20475;-72
2024/01/18 10:09:11;;;;;;;31.02;16.27;;;1.90;99.90;;;;;;5037470;28;20017;-72
2024/01/18 10:11:45;;;;;;;32.13;15.45;;;2.00;99.90;;;;;;5033487;28;20116;-71
2024/01/18 10:14:11;;;;;;;27.15;15.77;;;2.20;99.90;;;;;;5032160;28;20409;-71
2024/01/18 10:16:40;;;;;;;28.00;16.55;;;2.30;99.90;;;;;;5033911;28;20022;-73
2024/01/18 10:19:14;;;;;;;31.23;15.25;;;2.30;99.90;;;;;;5032664;28;20071;-72
2024/01/18 10:21:41;;;;;;;30.13;16.40;;;2.40;99.90;;;;;;5034422;28;20021;-72
2024/01/18 10:24:11;;;;;;;27.77;16.05;;;2.60;99.90;;;;;;5033295;28;20026;-72
2024/01/18 10:26:43;;;;;;;29.10;15.13;;;2.70;99.90;;;;;;5034164;28;20445;-72
2024/01/18 10:29:14;;;;;;;29.90;14.65;;;2.80;99.90;;;;;;5032325;28;20032;-72
2024/01/18 10:31:42;;;;;;;21.13;12.80;;;2.80;99.90;;;;;;5031234;28;20025;-72
2024/01/18 10:34:08;;;;;;;24.20;13.32;;;3.00;99.90;;;;;;5034278;28;20068;-73
2024/01/18 10:36:34;;;;;;;19.98;12.75;;;3.00;99.90;;;;;;5033475;28;20028;-73
2024/01/18 10:39:26;;;;;;;21.80;14.07;;;3.10;99.90;;;;;;5036465;28;20025;-73
2024/01/18 10:41:52;;;;;;;18.30;11.30;;;3.20;99.90;;;;;;5035484;28;20083;-72
2024/01/18 10:44:18;;;;;;;19.65;10.68;;;3.30;99.90;;;;;;5029194;28;20103;-73
2024/01/18 10:46:46;;;;;;;24.85;11.63;;;3.40;99.90;;;;;;5032649;28;20124;-72
2024/01/18 10:49:12;;;;;;;17.55;10.82;;;3.30;99.90;;;;;;5035598;28;20036;-72
2024/01/18 10:51:42;;;;;;;17.67;10.38;;;3.40;99.90;;;;;;5031667;28;20037;-72
2024/01/18 10:54:09;;;;;;;19.52;10.18;;;3.40;99.90;;;;;;5032013;28;20056;-72
2024/01/18 10:56:36;;;;;;;14.85;10.05;;;3.40;99.90;;;;;;5037685;28;20116;-73
2024/01/18 10:59:04;;;;;;;15.50;9.88;;;3.40;99.90;;;;;;5036321;28;20141;-73
2024/01/18 11:01:31;;;;;;;16.05;9.27;;;3.40;99.90;;;;;;5037733;28;20576;-73
2024/01/18 11:03:58;;;;;;;16.23;9.20;;;3.40;99.90;;;;;;5039174;28;20027;-73
2024/01/18 11:06:26;;;;;;;15.73;9.30;;;3.40;99.90;;;;;;5040194;28;20478;-73
2024/01/18 11:08:54;;;;;;;19.83;10.88;;;3.40;99.90;;;;;;5038709;28;20481;-73
2024/01/18 11:11:20;;;;;;;19.27;9.73;;;3.40;99.90;;;;;;5037938;28;20525;-73
2024/01/18 11:13:46;;;;;;;18.58;9.80;;;3.30;99.90;;;;;;5038993;28;20021;-73
2024/01/18 11:16:13;;;;;;;16.58;9.95;;;3.20;99.90;;;;;;5041814;28;20087;-73
2024/01/18 11:18:38;;;;;;;17.60;10.52;;;3.20;99.90;;;;;;5038714;28;21358;-73
2024/01/18 11:21:06;;;;;;;17.95;9.63;;;3.20;99.90;;;;;;5037477;28;20018;-73
2024/01/18 11:23:36;;;;;;;15.27;9.07;;;3.20;99.90;;;;;;5036177;28;20204;-73
2024/01/18 11:26:07;;;;;;;15.90;10.32;;;3.30;99.90;;;;;;5032406;28;20036;-73
2024/01/18 11:28:33;;;;;;;13.93;8.52;;;3.30;99.90;;;;;;5037266;28;20076;-73
2024/01/18 11:31:00;;;;;;;12.40;8.15;;;3.40;99.90;;;;;;5038081;28;20097;-73
2024/01/18 11:33:26;;;;;;;14.00;8.75;;;3.50;99.90;;;;;;5037300;28;20038;-72
2024/01/18 11:35:53;;;;;;;13.77;8.32;;;3.40;99.90;;;;;;5037341;28;20032;-73
2024/01/18 11:38:25;;;;;;;15.77;7.53;;;3.50;99.90;;;;;;5040461;28;20052;-73
2024/01/18 11:40:57;;;;;;;10.90;7.22;;;3.50;99.90;;;;;;5037453;28;20028;-72
2024/01/18 11:43:56;;;;;;;11.60;7.43;;;3.50;99.90;;;;;;5037923;28;20051;-72
2024/01/18 11:46:44;;;;;;;9.63;6.43;;;3.60;99.90;;;;;;5041232;28;20108;-72
2024/01/18 11:49:10;;;;;;;12.93;6.53;;;3.60;99.90;;;;;;5041491;28;20025;-72
2024/01/18 11:51:37;;;;;;;9.75;5.80;;;3.70;99.90;;;;;;5041120;28;20021;-72
2024/01/18 11:54:04;;;;;;;12.73;7.00;;;3.70;99.90;;;;;;5033193;28;20072;-73
2024/01/18 11:56:31;;;;;;;9.75;6.38;;;3.70;99.90;;;;;;5033821;28;20470;-73
2024/01/18 11:58:58;;;;;;;11.05;5.43;;;3.70;99.90;;;;;;5035644;28;20128;-72
2024/01/18 12:01:24;;;;;;;9.93;5.07;;;3.70;99.90;;;;;;5034995;28;20053;-73
2024/01/18 12:03:52;;;;;;;10.52;5.97;;;3.70;99.90;;;;;;5035206;28;20024;-73
2024/01/18 12:06:18;;;;;;;10.70;5.30;;;3.70;99.90;;;;;;5035673;28;20049;-72
2024/01/18 12:08:45;;;;;;;13.15;5.15;;;3.70;99.90;;;;;;5038203;28;20017;-72
2024/01/18 12:11:11;;;;;;;11.45;5.13;;;3.70;99.90;;;;;;5032819;28;20079;-73
2024/01/18 12:13:40;;;;;;;11.00;4.65;;;3.70;99.90;;;;;;5032608;28;20099;-73
2024/01/18 12:16:06;;;;;;;6.97;4.07;;;3.70;99.90;;;;;;5038519;28;20029;-74
2024/01/18 12:18:43;;;;;;;8.15;3.80;;;3.80;99.90;;;;;;5033339;28;20348;-74
2024/01/18 12:21:09;;;;;;;8.63;3.95;;;3.80;99.90;;;;;;5035141;28;20075;-73
2024/01/18 12:23:35;;;;;;;6.78;3.95;;;3.80;99.90;;;;;;5037814;28;20025;-73
2024/01/18 12:26:02;;;;;;;6.90;3.47;;;3.80;99.90;;;;;;5036814;28;20486;-73
2024/01/18 12:28:28;;;;;;;6.50;3.45;;;3.90;99.90;;;;;;5038384;28;20588;-73
2024/01/18 12:31:03;;;;;;;6.70;3.03;;;3.80;99.90;;;;;;5033791;28;20120;-73
2024/01/18 12:33:32;;;;;;;8.02;3.65;;;3.90;99.90;;;;;;5040254;28;20029;-73